Terminal Aerodrome Forecast
Issued by NWS

Home | Current Version | Previous Version | Text Only | Print | Product List | Glossary On
Versions: 1 2 3 4 5 6 7 8 9 10 11 12 13 14 15 16 17 18 19 20 21 22 23
000
FTUS43 KIND 281700
TAFHUF
TAF
KHUF 281720Z 2818/2918 16011KT P6SM BKN250
     FM282200 14012KT P6SM SCT080 BKN180
     FM290700 17015G22KT P6SM VCSH OVC040
     FM291400 27015G22KT P6SM VCSH OVC015=

USA.gov is the U.S. government's official web portal to all federal, state and local government web resources and services.